Vonda, Canada
Current Conditions -  °F | °C
As of 7:33 AM on Wednesday 22 Oct 2014 (Local Time) from CYXE Reporting Station
Rain Showers Rain Showers  
Wind Chill: 44°   Ceiling: 7000
Heat Index: 48°   Visibility: 15mi
Dew Point: 45°   Wind: 9mph
Humidity: 87%   Direction: 290°WNW
Pressure: 29.7"   Gusts: NA
Location:  52.32°N, 106.1°W
Report Text: CYXE 221333Z 29008KT 15SM -SHRA BKN070 OVC150 09/07 A2970 RMK AC5AC3 SLP068
Loading
Personal Weather Stations






























Interactive Weather Map
Tropical Storm Tracking
New forecast layout! Learn more

10-Day Weather Forecast

Advertisements
Track Severe Weather on mobile